createdAt,value
2018-11-28T00:03:42.135Z,69.4
2018-11-28T00:14:28.006Z,69.5
2018-11-28T00:24:41.940Z,69.4
2018-11-28T00:34:55.661Z,69.5
2018-11-28T00:45:09.702Z,69.6
2018-11-28T00:55:23.166Z,69.6
2018-11-28T01:05:37.184Z,69.6
2018-11-28T01:15:51.725Z,69.6
2018-11-28T01:26:05.742Z,69.5
2018-11-28T01:36:19.616Z,69.6
2018-11-28T01:46:33.237Z,69.9
2018-11-28T01:57:18.575Z,69.7
2018-11-28T02:08:04.391Z,69.7
2018-11-28T02:18:17.583Z,69.7
2018-11-28T02:28:32.336Z,69.8
2018-11-28T02:38:46.389Z,69.9
2018-11-28T02:49:00.670Z,70.5
2018-11-28T02:59:21.839Z,70.3
2018-11-28T03:09:57.203Z,70.3
2018-11-28T03:20:11.766Z,70.2
2018-11-28T03:30:23.846Z,70.5
2018-11-28T03:40:35.105Z,70.3
2018-11-28T03:50:49.236Z,70.7
2018-11-28T04:01:02.477Z,70.6
2018-11-28T04:11:17.188Z,70.5
2018-11-28T04:21:29.253Z,70.3
2018-11-28T04:31:42.677Z,70.3
2018-11-28T04:41:53.951Z,70.9
2018-11-28T04:52:39.970Z,70.5
2018-11-28T05:03:39.534Z,70.4
2018-11-28T05:13:52.661Z,70.3
2018-11-28T05:24:06.337Z,70.3
2018-11-28T05:39:04.301Z,70.7
2018-11-28T05:49:18.035Z,70.5
2018-11-28T05:59:31.914Z,70.6
2018-11-28T06:09:45.578Z,70.9
2018-11-28T06:20:56.991Z,70.9
2018-11-28T06:31:21.323Z,70.9
2018-11-28T06:41:57.915Z,71.1
2018-11-28T06:52:12.531Z,71.6
2018-11-28T07:02:26.591Z,71.6
2018-11-28T07:13:13.217Z,71.7
2018-11-28T07:24:45.522Z,71.7
2018-11-28T07:35:30.386Z,72.0
2018-11-28T07:45:43.851Z,72.0
2018-11-28T07:56:11.271Z,72.0
2018-11-28T08:06:25.396Z,72.3
2018-11-28T08:17:12.316Z,72.7
2018-11-28T08:27:58.202Z,72.2
2018-11-28T08:38:09.398Z,72.3
2018-11-28T08:48:55.094Z,72.6
2018-11-28T08:59:08.228Z,72.7
2018-11-28T09:09:19.645Z,72.9
2018-11-28T09:19:33.208Z,73.1
2018-11-28T09:29:45.387Z,73.1
2018-11-28T09:39:59.472Z,73.0
2018-11-28T09:50:12.782Z,73.0
2018-11-28T10:00:26.864Z,73.0
2018-11-28T10:10:41.349Z,73.1
2018-11-28T10:20:55.244Z,73.1
2018-11-28T10:31:08.604Z,72.9
2018-11-28T10:41:23.067Z,72.9
2018-11-28T10:51:37.031Z,73.0
2018-11-28T11:01:50.279Z,72.9
2018-11-28T11:12:04.732Z,72.7
2018-11-28T11:22:18.567Z,72.6
2018-11-28T11:32:32.273Z,72.5
2018-11-28T11:42:46.079Z,72.5
2018-11-28T11:52:59.420Z,72.5
2018-11-28T12:03:13.774Z,72.5
2018-11-28T12:13:25.732Z,72.4
2018-11-28T12:23:38.836Z,72.3
2018-11-28T12:33:50.252Z,72.2
2018-11-28T12:46:25.677Z,72.0
2018-11-28T13:34:13.011Z,67.8
2018-11-28T13:45:13.240Z,69.0
2018-11-28T14:36:56.024Z,70.0
2018-11-28T14:47:41.711Z,70.7
2018-11-28T14:57:53.427Z,71.2
2018-11-28T15:08:07.477Z,71.5
2018-11-28T15:18:20.766Z,71.8
2018-11-28T15:28:35.062Z,71.7
2018-11-28T15:38:49.413Z,71.9
2018-11-28T15:49:05.096Z,72.0
2018-11-28T15:59:19.677Z,72.1
2018-11-28T16:09:33.850Z,72.1
2018-11-28T16:19:45.041Z,72.3
2018-11-28T16:30:10.630Z,72.4
2018-11-28T16:40:24.288Z,72.5
2018-11-28T16:51:00.759Z,72.5
2018-11-28T17:01:14.283Z,72.5
2018-11-28T17:11:28.044Z,72.8
2018-11-28T17:21:41.201Z,73.1
2018-11-28T17:31:54.926Z,73.2
2018-11-28T17:42:08.566Z,73.2
2018-11-28T17:52:22.116Z,73.5
2018-11-28T18:02:36.628Z,73.5
2018-11-28T18:12:50.589Z,74.0
2018-11-28T18:23:56.907Z,74.7
2018-11-28T18:35:24.112Z,75.1
2018-11-28T18:46:41.480Z,75.5
2018-11-28T18:58:37.637Z,76.0
2018-11-28T19:10:11.401Z,76.3
2018-11-28T19:36:06.605Z,76.3
2018-11-28T19:47:59.666Z,76.2
2018-11-28T20:28:15.945Z,76.3
2018-11-28T20:40:20.587Z,76.3
2018-11-28T20:51:24.055Z,76.6
2018-11-28T21:04:09.695Z,76.6
2018-11-28T21:14:57.898Z,76.7
2018-11-28T21:25:43.269Z,76.6
2018-11-28T21:35:56.588Z,76.7
2018-11-28T21:46:09.968Z,76.8
2018-11-28T21:56:23.918Z,77.2
2018-11-28T22:06:37.439Z,77.3
2018-11-28T22:16:51.294Z,77.2
2018-11-28T22:27:36.335Z,77.2
2018-11-28T22:38:20.585Z,77.3
2018-11-28T22:49:05.793Z,77.4
2018-11-28T22:59:50.141Z,77.5
2018-11-28T23:10:03.848Z,77.3
2018-11-28T23:20:49.099Z,77.6
2018-11-28T23:31:34.135Z,77.7
2018-11-28T23:41:47.701Z,77.6
2018-11-28T23:52:01.754Z,78.0
